sensor_id;sensor_type;location;lat;lon;timestamp;pressure;altitude;pressure_sealevel;temperature;humidity
72685;BME280;61365;52.162;4.500;2022-12-01T00:01:01;102811.78;;;4.60;93.14
72685;BME280;61365;52.162;4.500;2022-12-01T00:03:30;102809.63;;;4.36;93.52
72685;BME280;61365;52.162;4.500;2022-12-01T00:06:04;102810.06;;;4.29;95.39
72685;BME280;61365;52.162;4.500;2022-12-01T00:08:33;102815.00;;;4.39;95.61
72685;BME280;61365;52.162;4.500;2022-12-01T00:11:10;102826.09;;;4.21;95.56
72685;BME280;61365;52.162;4.500;2022-12-01T00:13:37;102821.66;;;4.50;94.76
72685;BME280;61365;52.162;4.500;2022-12-01T00:16:14;102821.88;;;4.39;94.31
72685;BME280;61365;52.162;4.500;2022-12-01T00:18:42;102817.34;;;4.19;95.66
72685;BME280;61365;52.162;4.500;2022-12-01T00:21:16;102817.78;;;4.27;96.39
72685;BME280;61365;52.162;4.500;2022-12-01T00:23:50;102812.09;;;4.34;96.47
72685;BME280;61365;52.162;4.500;2022-12-01T00:26:19;102816.88;;;4.27;95.61
72685;BME280;61365;52.162;4.500;2022-12-01T00:28:51;102819.63;;;4.45;95.38
72685;BME280;61365;52.162;4.500;2022-12-01T00:31:22;102820.78;;;4.50;94.69
72685;BME280;61365;52.162;4.500;2022-12-01T00:33:49;102820.25;;;4.41;95.05
72685;BME280;61365;52.162;4.500;2022-12-01T00:36:15;102817.75;;;4.42;95.32
72685;BME280;61365;52.162;4.500;2022-12-01T00:38:42;102809.78;;;4.71;94.52
72685;BME280;61365;52.162;4.500;2022-12-01T00:41:08;102817.63;;;4.56;94.03
72685;BME280;61365;52.162;4.500;2022-12-01T00:43:34;102811.22;;;4.65;94.58
72685;BME280;61365;52.162;4.500;2022-12-01T00:46:01;102820.03;;;4.84;93.87
72685;BME280;61365;52.162;4.500;2022-12-01T00:48:27;102812.00;;;4.79;93.35
72685;BME280;61365;52.162;4.500;2022-12-01T00:50:54;102815.28;;;4.60;94.14
72685;BME280;61365;52.162;4.500;2022-12-01T00:53:21;102819.94;;;4.66;94.53
72685;BME280;61365;52.162;4.500;2022-12-01T00:55:48;102820.31;;;4.57;94.76
72685;BME280;61365;52.162;4.500;2022-12-01T00:58:14;102818.06;;;4.80;94.32
72685;BME280;61365;52.162;4.500;2022-12-01T01:00:41;102824.94;;;4.78;93.81
72685;BME280;61365;52.162;4.500;2022-12-01T01:03:08;102818.97;;;4.64;94.10
72685;BME280;61365;52.162;4.500;2022-12-01T01:05:36;102825.03;;;4.64;93.94
72685;BME280;61365;52.162;4.500;2022-12-01T01:08:07;102816.81;;;4.57;94.44
72685;BME280;61365;52.162;4.500;2022-12-01T01:10:40;102822.09;;;4.58;94.07
72685;BME280;61365;52.162;4.500;2022-12-01T01:13:08;102821.63;;;4.65;93.95
72685;BME280;61365;52.162;4.500;2022-12-01T01:15:35;102822.84;;;4.72;93.43
72685;BME280;61365;52.162;4.500;2022-12-01T01:18:01;102823.47;;;4.51;94.29
72685;BME280;61365;52.162;4.500;2022-12-01T01:20:28;102820.38;;;4.74;93.52
72685;BME280;61365;52.162;4.500;2022-12-01T01:22:55;102831.22;;;4.66;93.22
72685;BME280;61365;52.162;4.500;2022-12-01T01:25:22;102839.25;;;4.55;94.09
72685;BME280;61365;52.162;4.500;2022-12-01T01:27:49;102837.97;;;4.63;94.08
72685;BME280;61365;52.162;4.500;2022-12-01T01:30:16;102839.84;;;4.65;93.52
72685;BME280;61365;52.162;4.500;2022-12-01T01:32:43;102832.88;;;4.81;93.08
72685;BME280;61365;52.162;4.500;2022-12-01T01:35:10;102843.13;;;4.78;92.38
72685;BME280;61365;52.162;4.500;2022-12-01T01:37:36;102836.94;;;4.76;92.89
72685;BME280;61365;52.162;4.500;2022-12-01T01:40:02;102847.91;;;4.55;93.54
72685;BME280;61365;52.162;4.500;2022-12-01T01:42:29;102846.97;;;4.53;94.32
72685;BME280;61365;52.162;4.500;2022-12-01T01:44:57;102841.47;;;4.80;93.05
72685;BME280;61365;52.162;4.500;2022-12-01T01:47:27;102843.19;;;4.63;93.11
72685;BME280;61365;52.162;4.500;2022-12-01T01:50:00;102843.06;;;4.61;92.92
72685;BME280;61365;52.162;4.500;2022-12-01T01:52:33;102843.22;;;4.48;93.76
72685;BME280;61365;52.162;4.500;2022-12-01T01:55:03;102846.31;;;4.57;93.71
72685;BME280;61365;52.162;4.500;2022-12-01T01:57:31;102845.50;;;4.58;93.88
72685;BME280;61365;52.162;4.500;2022-12-01T02:00:07;102848.19;;;4.60;93.62
72685;BME280;61365;52.162;4.500;2022-12-01T02:02:37;102835.44;;;4.64;93.76
72685;BME280;61365;52.162;4.500;2022-12-01T02:05:12;102835.28;;;4.61;93.34
72685;BME280;61365;52.162;4.500;2022-12-01T02:07:43;102825.38;;;4.39;94.37
72685;BME280;61365;52.162;4.500;2022-12-01T02:10:12;102832.44;;;4.42;95.07
72685;BME280;61365;52.162;4.500;2022-12-01T02:27:00;102824.09;;;4.47;94.78
72685;BME280;61365;52.162;4.500;2022-12-01T02:38:42;102824.72;;;4.43;93.59
72685;BME280;61365;52.162;4.500;2022-12-01T02:41:38;102817.00;;;4.28;95.37
72685;BME280;61365;52.162;4.500;2022-12-01T02:44:25;102821.69;;;4.35;94.57
72685;BME280;61365;52.162;4.500;2022-12-01T02:47:15;102818.19;;;4.03;95.75
72685;BME280;61365;52.162;4.500;2022-12-01T02:49:48;102825.94;;;4.18;96.61
72685;BME280;61365;52.162;4.500;2022-12-01T02:52:18;102828.84;;;4.55;94.38
72685;BME280;61365;52.162;4.500;2022-12-01T02:54:48;102821.69;;;4.35;94.07
72685;BME280;61365;52.162;4.500;2022-12-01T02:57:16;102822.53;;;4.04;95.30
72685;BME280;61365;52.162;4.500;2022-12-01T02:59:48;102823.38;;;4.03;96.37
72685;BME280;61365;52.162;4.500;2022-12-01T03:05:39;102828.47;;;3.87;97.53
72685;BME280;61365;52.162;4.500;2022-12-01T03:08:36;102829.25;;;3.86;98.13
72685;BME280;61365;52.162;4.500;2022-12-01T03:11:48;102825.97;;;3.88;98.04
72685;BME280;61365;52.162;4.500;2022-12-01T03:14:43;102822.91;;;3.81;98.54
72685;BME280;61365;52.162;4.500;2022-12-01T03:17:26;102826.22;;;3.78;98.07
72685;BME280;61365;52.162;4.500;2022-12-01T03:20:15;102829.56;;;3.75;98.67
72685;BME280;61365;52.162;4.500;2022-12-01T03:22:54;102829.56;;;3.75;98.66
72685;BME280;61365;52.162;4.500;2022-12-01T03:25:29;102834.44;;;3.71;98.72
72685;BME280;61365;52.162;4.500;2022-12-01T03:27:57;102831.41;;;3.78;98.77
72685;BME280;61365;52.162;4.500;2022-12-01T03:30:28;102831.50;;;3.80;98.31
72685;BME280;61365;52.162;4.500;2022-12-01T03:33:05;102831.22;;;3.75;98.29
72685;BME280;61365;52.162;4.500;2022-12-01T03:35:42;102838.94;;;3.73;98.80
72685;BME280;61365;52.162;4.500;2022-12-01T03:38:23;102833.75;;;3.88;98.34
72685;BME280;61365;52.162;4.500;2022-12-01T03:40:56;102829.88;;;3.67;98.24
72685;BME280;61365;52.162;4.500;2022-12-01T03:43:30;102829.25;;;3.71;98.76
72685;BME280;61365;52.162;4.500;2022-12-01T03:46:06;102827.00;;;3.62;97.82
72685;BME280;61365;52.162;4.500;2022-12-01T03:48:40;102826.63;;;3.56;98.54
72685;BME280;61365;52.162;4.500;2022-12-01T03:54:20;102832.94;;;3.74;98.52
72685;BME280;61365;52.162;4.500;2022-12-01T03:57:02;102837.03;;;3.56;98.38
72685;BME280;61365;52.162;4.500;2022-12-01T03:59:34;102827.28;;;3.52;98.57
72685;BME280;61365;52.162;4.500;2022-12-01T04:02:06;102835.25;;;3.70;98.52
72685;BME280;61365;52.162;4.500;2022-12-01T04:04:33;102826.81;;;3.59;97.88
72685;BME280;61365;52.162;4.500;2022-12-01T04:06:59;102838.94;;;3.73;98.11
72685;BME280;61365;52.162;4.500;2022-12-01T04:09:26;102833.66;;;3.72;97.11
72685;BME280;61365;52.162;4.500;2022-12-01T04:11:52;102835.63;;;3.76;97.54
72685;BME280;61365;52.162;4.500;2022-12-01T04:14:37;102827.97;;;3.49;97.40
72685;BME280;61365;52.162;4.500;2022-12-01T04:17:03;102833.34;;;3.52;97.89
72685;BME280;61365;52.162;4.500;2022-12-01T04:19:30;102822.53;;;3.44;98.19
72685;BME280;61365;52.162;4.500;2022-12-01T04:21:56;102825.53;;;3.37;98.25
72685;BME280;61365;52.162;4.500;2022-12-01T04:24:23;102826.91;;;3.45;99.02
72685;BME280;61365;52.162;4.500;2022-12-01T04:26:49;102825.00;;;3.43;98.81
72685;BME280;61365;52.162;4.500;2022-12-01T04:29:15;102828.53;;;3.58;98.42
72685;BME280;61365;52.162;4.500;2022-12-01T04:31:42;102836.94;;;3.54;98.82
72685;BME280;61365;52.162;4.500;2022-12-01T04:34:09;102833.28;;;3.51;98.07
72685;BME280;61365;52.162;4.500;2022-12-01T04:36:35;102840.34;;;3.53;97.83
72685;BME280;61365;52.162;4.500;2022-12-01T04:39:02;102831.72;;;3.39;97.54
72685;BME280;61365;52.162;4.500;2022-12-01T04:41:29;102831.28;;;3.47;98.27
72685;BME280;61365;52.162;4.500;2022-12-01T04:43:56;102822.94;;;3.37;98.91
72685;BME280;61365;52.162;4.500;2022-12-01T04:46:23;102829.16;;;3.54;98.39
72685;BME280;61365;52.162;4.500;2022-12-01T04:48:50;102825.19;;;3.46;98.75
72685;BME280;61365;52.162;4.500;2022-12-01T04:51:17;102814.72;;;3.44;98.50
72685;BME280;61365;52.162;4.500;2022-12-01T04:53:44;102817.41;;;3.46;98.71
72685;BME280;61365;52.162;4.500;2022-12-01T04:56:10;102814.53;;;3.41;98.68
72685;BME280;61365;52.162;4.500;2022-12-01T04:58:37;102817.41;;;3.46;98.75
72685;BME280;61365;52.162;4.500;2022-12-01T05:01:06;102819.13;;;3.45;98.89
72685;BME280;61365;52.162;4.500;2022-12-01T05:03:38;102830.34;;;3.31;98.22
72685;BME280;61365;52.162;4.500;2022-12-01T05:06:08;102825.06;;;3.29;98.98
72685;BME280;61365;52.162;4.500;2022-12-01T05:08:36;102826.16;;;3.33;98.82
72685;BME280;61365;52.162;4.500;2022-12-01T05:11:04;102835.84;;;3.36;98.94
72685;BME280;61365;52.162;4.500;2022-12-01T05:13:35;102839.13;;;3.33;98.69
72685;BME280;61365;52.162;4.500;2022-12-01T05:16:05;102839.69;;;3.42;99.14
72685;BME280;61365;52.162;4.500;2022-12-01T05:18:36;102846.41;;;3.39;98.78
72685;BME280;61365;52.162;4.500;2022-12-01T05:21:04;102851.53;;;3.52;97.52
72685;BME280;61365;52.162;4.500;2022-12-01T05:23:33;102846.72;;;3.58;96.01
72685;BME280;61365;52.162;4.500;2022-12-01T05:26:02;102839.94;;;3.75;94.74
72685;BME280;61365;52.162;4.500;2022-12-01T05:28:30;102844.66;;;3.83;92.75
72685;BME280;61365;52.162;4.500;2022-12-01T05:30:57;102843.50;;;3.63;92.74
72685;BME280;61365;52.162;4.500;2022-12-01T05:33:25;102852.63;;;3.27;93.96
72685;BME280;61365;52.162;4.500;2022-12-01T05:35:52;102855.66;;;3.49;94.68
72685;BME280;61365;52.162;4.500;2022-12-01T05:38:19;102846.50;;;3.40;94.13
72685;BME280;61365;52.162;4.500;2022-12-01T05:40:54;102852.34;;;3.51;94.67
72685;BME280;61365;52.162;4.500;2022-12-01T05:43:22;102847.75;;;3.47;94.01
72685;BME280;61365;52.162;4.500;2022-12-01T05:45:49;102853.31;;;3.53;94.36
72685;BME280;61365;52.162;4.500;2022-12-01T05:48:15;102853.31;;;3.53;95.20
72685;BME280;61365;52.162;4.500;2022-12-01T05:50:42;102857.38;;;3.63;95.18
72685;BME280;61365;52.162;4.500;2022-12-01T05:53:10;102854.34;;;3.85;93.65
72685;BME280;61365;52.162;4.500;2022-12-01T05:55:38;102859.19;;;3.94;93.47
72685;BME280;61365;52.162;4.500;2022-12-01T05:58:05;102851.19;;;3.61;95.38
72685;BME280;61365;52.162;4.500;2022-12-01T06:00:31;102852.19;;;3.78;94.72
72685;BME280;61365;52.162;4.500;2022-12-01T06:02:58;102853.56;;;3.86;94.80
72685;BME280;61365;52.162;4.500;2022-12-01T06:05:24;102851.22;;;3.91;95.06
72685;BME280;61365;52.162;4.500;2022-12-01T06:07:50;102854.44;;;4.02;94.84
72685;BME280;61365;52.162;4.500;2022-12-01T06:10:17;102864.41;;;4.09;94.13
72685;BME280;61365;52.162;4.500;2022-12-01T06:12:43;102859.75;;;3.88;94.83
72685;BME280;61365;52.162;4.500;2022-12-01T06:15:11;102857.28;;;3.62;95.83
72685;BME280;61365;52.162;4.500;2022-12-01T06:17:37;102862.59;;;3.78;96.49
72685;BME280;61365;52.162;4.500;2022-12-01T06:20:05;102860.63;;;4.04;95.88
72685;BME280;61365;52.162;4.500;2022-12-01T06:22:32;102868.59;;;4.07;94.65
72685;BME280;61365;52.162;4.500;2022-12-01T06:24:59;102877.28;;;3.93;94.73
72685;BME280;61365;52.162;4.500;2022-12-01T06:27:25;102864.41;;;3.94;95.05
72685;BME280;61365;52.162;4.500;2022-12-01T06:29:51;102867.88;;;4.10;94.38
72685;BME280;61365;52.162;4.500;2022-12-01T06:32:18;102872.56;;;4.15;95.22
72685;BME280;61365;52.162;4.500;2022-12-01T06:34:44;102872.44;;;4.14;95.21
72685;BME280;61365;52.162;4.500;2022-12-01T06:37:10;102872.00;;;4.06;95.15
72685;BME280;61365;52.162;4.500;2022-12-01T06:39:37;102869.47;;;4.08;96.00
72685;BME280;61365;52.162;4.500;2022-12-01T06:42:03;102871.56;;;3.98;95.94
72685;BME280;61365;52.162;4.500;2022-12-01T06:44:29;102871.28;;;4.24;95.91
72685;BME280;61365;52.162;4.500;2022-12-01T06:46:56;102870.75;;;4.14;95.54
72685;BME280;61365;52.162;4.500;2022-12-01T06:49:22;102869.03;;;4.15;95.77
72685;BME280;61365;52.162;4.500;2022-12-01T06:51:48;102873.44;;;4.16;95.52
72685;BME280;61365;52.162;4.500;2022-12-01T06:54:15;102874.25;;;4.15;95.72
72685;BME280;61365;52.162;4.500;2022-12-01T06:56:43;102877.75;;;4.15;96.03
72685;BME280;61365;52.162;4.500;2022-12-01T06:59:11;102880.44;;;4.32;94.90
72685;BME280;61365;52.162;4.500;2022-12-01T07:01:37;102884.63;;;4.15;95.06
72685;BME280;61365;52.162;4.500;2022-12-01T07:04:04;102875.16;;;4.15;95.32
72685;BME280;61365;52.162;4.500;2022-12-01T07:06:31;102882.78;;;4.12;95.37
72685;BME280;61365;52.162;4.500;2022-12-01T07:08:57;102879.06;;;4.39;95.55
72685;BME280;61365;52.162;4.500;2022-12-01T07:11:24;102885.00;;;4.21;95.70
72685;BME280;61365;52.162;4.500;2022-12-01T07:13:54;102887.97;;;4.27;95.78
72685;BME280;61365;52.162;4.500;2022-12-01T07:16:20;102876.91;;;4.31;95.47
72685;BME280;61365;52.162;4.500;2022-12-01T07:18:47;102878.00;;;4.50;95.26
72685;BME280;61365;52.162;4.500;2022-12-01T07:21:14;102879.44;;;4.45;94.55
72685;BME280;61365;52.162;4.500;2022-12-01T07:23:41;102885.19;;;4.39;95.00
72685;BME280;61365;52.162;4.500;2022-12-01T07:26:13;102886.78;;;4.52;94.71
72685;BME280;61365;52.162;4.500;2022-12-01T07:28:41;102891.56;;;4.76;93.63
72685;BME280;61365;52.162;4.500;2022-12-01T07:31:14;102888.81;;;4.58;93.22
72685;BME280;61365;52.162;4.500;2022-12-01T07:33:42;102898.22;;;4.71;92.99
72685;BME280;61365;52.162;4.500;2022-12-01T07:36:10;102915.41;;;4.84;92.75
72685;BME280;61365;52.162;4.500;2022-12-01T07:38:38;102915.53;;;4.55;92.58
72685;BME280;61365;52.162;4.500;2022-12-01T07:41:07;102916.97;;;4.65;93.64
72685;BME280;61365;52.162;4.500;2022-12-01T07:43:38;102920.59;;;4.84;92.47
72685;BME280;61365;52.162;4.500;2022-12-01T07:46:06;102915.81;;;4.60;93.55
72685;BME280;61365;52.162;4.500;2022-12-01T07:48:35;102924.44;;;4.90;92.59
72685;BME280;61365;52.162;4.500;2022-12-01T07:51:04;102920.22;;;4.61;92.73
72685;BME280;61365;52.162;4.500;2022-12-01T07:53:32;102925.03;;;4.55;93.45
72685;BME280;61365;52.162;4.500;2022-12-01T07:55:59;102923.81;;;4.94;92.47
72685;BME280;61365;52.162;4.500;2022-12-01T07:58:26;102924.69;;;4.95;92.56
72685;BME280;61365;52.162;4.500;2022-12-01T08:00:52;102933.97;;;5.21;91.70
72685;BME280;61365;52.162;4.500;2022-12-01T08:03:19;102941.72;;;5.05;91.98
72685;BME280;61365;52.162;4.500;2022-12-01T08:05:55;102939.94;;;5.04;92.40
72685;BME280;61365;52.162;4.500;2022-12-01T08:08:23;102935.44;;;5.01;92.03
72685;BME280;61365;52.162;4.500;2022-12-01T08:10:51;102938.22;;;5.04;91.75
72685;BME280;61365;52.162;4.500;2022-12-01T08:13:18;102934.00;;;5.06;91.53
72685;BME280;61365;52.162;4.500;2022-12-01T08:15:45;102942.31;;;4.84;92.52
72685;BME280;61365;52.162;4.500;2022-12-01T08:18:12;102941.47;;;5.00;92.87
72685;BME280;61365;52.162;4.500;2022-12-01T08:20:38;102950.38;;;4.89;93.16
72685;BME280;61365;52.162;4.500;2022-12-01T08:23:04;102947.81;;;5.05;93.34
72685;BME280;61365;52.162;4.500;2022-12-01T08:25:33;102944.16;;;5.02;92.73
72685;BME280;61365;52.162;4.500;2022-12-01T08:28:00;102940.59;;;5.00;93.35
72685;BME280;61365;52.162;4.500;2022-12-01T08:30:27;102940.75;;;5.03;92.90
72685;BME280;61365;52.162;4.500;2022-12-01T08:32:54;102940.66;;;5.01;93.59
72685;BME280;61365;52.162;4.500;2022-12-01T08:35:22;102945.19;;;5.20;92.55
72685;BME280;61365;52.162;4.500;2022-12-01T08:37:53;102951.53;;;5.25;92.36
72685;BME280;61365;52.162;4.500;2022-12-01T08:40:20;102944.72;;;5.28;91.48
72685;BME280;61365;52.162;4.500;2022-12-01T08:42:47;102949.75;;;5.41;92.36
72685;BME280;61365;52.162;4.500;2022-12-01T08:45:13;102945.53;;;5.43;91.24
72685;BME280;61365;52.162;4.500;2022-12-01T08:47:40;102944.09;;;5.48;90.18
72685;BME280;61365;52.162;4.500;2022-12-01T08:50:06;102953.53;;;5.63;90.18
72685;BME280;61365;52.162;4.500;2022-12-01T08:52:33;102945.25;;;5.53;90.66
72685;BME280;61365;52.162;4.500;2022-12-01T08:55:00;102940.16;;;5.56;90.11
72685;BME280;61365;52.162;4.500;2022-12-01T08:57:28;102945.38;;;5.56;90.13
72685;BME280;61365;52.162;4.500;2022-12-01T08:59:55;102938.94;;;5.50;90.31
72685;BME280;61365;52.162;4.500;2022-12-01T09:02:21;102942.47;;;5.50;90.06
72685;BME280;61365;52.162;4.500;2022-12-01T09:04:47;102936.50;;;5.36;90.99
72685;BME280;61365;52.162;4.500;2022-12-01T09:07:18;102929.19;;;5.62;90.37
72685;BME280;61365;52.162;4.500;2022-12-01T09:09:44;102942.13;;;5.61;89.89
72685;BME280;61365;52.162;4.500;2022-12-01T09:12:11;102939.59;;;5.79;89.38
72685;BME280;61365;52.162;4.500;2022-12-01T09:14:40;102937.81;;;5.78;89.65
72685;BME280;61365;52.162;4.500;2022-12-01T09:17:10;102936.59;;;5.54;90.46
72685;BME280;61365;52.162;4.500;2022-12-01T09:19:36;102936.75;;;5.74;91.95
72685;BME280;61365;52.162;4.500;2022-12-01T09:22:03;102938.16;;;5.84;92.10
72685;BME280;61365;52.162;4.500;2022-12-01T09:24:29;102940.41;;;5.78;93.03
72685;BME280;61365;52.162;4.500;2022-12-01T09:26:57;102936.31;;;5.99;93.33
72685;BME280;61365;52.162;4.500;2022-12-01T09:29:24;102940.66;;;6.15;91.72
72685;BME280;61365;52.162;4.500;2022-12-01T09:31:54;102941.34;;;6.29;92.24
72685;BME280;61365;52.162;4.500;2022-12-01T09:34:22;102939.50;;;6.45;91.74
72685;BME280;61365;52.162;4.500;2022-12-01T09:36:49;102934.91;;;6.57;90.42
72685;BME280;61365;52.162;4.500;2022-12-01T09:39:19;102936.31;;;6.69;88.46
72685;BME280;61365;52.162;4.500;2022-12-01T09:47:11;102929.19;;;6.65;86.08
72685;BME280;61365;52.162;4.500;2022-12-01T09:50:03;102928.94;;;6.42;85.12
72685;BME280;61365;52.162;4.500;2022-12-01T09:52:46;102928.47;;;6.33;88.86
72685;BME280;61365;52.162;4.500;2022-12-01T09:55:18;102922.91;;;6.43;90.03
72685;BME280;61365;52.162;4.500;2022-12-01T09:57:48;102924.09;;;6.50;88.72
72685;BME280;61365;52.162;4.500;2022-12-01T10:00:25;102918.91;;;6.68;89.92
72685;BME280;61365;52.162;4.500;2022-12-01T10:06:10;102903.34;;;7.07;83.16
72685;BME280;61365;52.162;4.500;2022-12-01T10:09:11;102915.38;;;6.85;84.97
72685;BME280;61365;52.162;4.500;2022-12-01T10:11:41;102915.94;;;6.98;83.08
72685;BME280;61365;52.162;4.500;2022-12-01T10:14:15;102912.78;;;6.85;84.79
72685;BME280;61365;52.162;4.500;2022-12-01T10:20:01;102914.06;;;6.75;83.41
72685;BME280;61365;52.162;4.500;2022-12-01T10:22:41;102917.03;;;6.83;83.82
72685;BME280;61365;52.162;4.500;2022-12-01T10:25:26;102918.06;;;6.69;84.18
72685;BME280;61365;52.162;4.500;2022-12-01T10:31:04;102922.59;;;6.91;83.51
72685;BME280;61365;52.162;4.500;2022-12-01T10:33:59;102921.47;;;7.04;82.65
72685;BME280;61365;52.162;4.500;2022-12-01T10:36:33;102921.56;;;7.05;82.55
72685;BME280;61365;52.162;4.500;2022-12-01T10:39:02;102923.56;;;6.93;83.60
72685;BME280;61365;52.162;4.500;2022-12-01T10:41:35;102912.97;;;7.08;82.98
72685;BME280;61365;52.162;4.500;2022-12-01T10:44:04;102918.84;;;7.04;81.59
72685;BME280;61365;52.162;4.500;2022-12-01T10:46:44;102917.00;;;7.01;83.30
72685;BME280;61365;52.162;4.500;2022-12-01T10:49:17;102910.69;;;7.16;83.39
72685;BME280;61365;52.162;4.500;2022-12-01T10:51:55;102915.28;;;6.84;82.89
72685;BME280;61365;52.162;4.500;2022-12-01T10:54:32;102915.22;;;7.00;83.24
72685;BME280;61365;52.162;4.500;2022-12-01T10:57:02;102907.53;;;7.03;84.48
72685;BME280;61365;52.162;4.500;2022-12-01T10:59:35;102910.56;;;7.13;83.59
72685;BME280;61365;52.162;4.500;2022-12-01T11:02:34;102897.16;;;7.05;83.07
72685;BME280;61365;52.162;4.500;2022-12-01T11:05:03;102896.06;;;7.19;83.56
72685;BME280;61365;52.162;4.500;2022-12-01T11:07:35;102897.94;;;7.22;82.22
72685;BME280;61365;52.162;4.500;2022-12-01T11:10:24;102902.91;;;6.98;84.92
72685;BME280;61365;52.162;4.500;2022-12-01T11:15:33;102886.53;;;7.20;81.97
72685;BME280;61365;52.162;4.500;2022-12-01T11:18:18;102893.25;;;7.15;81.70
72685;BME280;61365;52.162;4.500;2022-12-01T11:20:47;102888.31;;;6.83;83.75
72685;BME280;61365;52.162;4.500;2022-12-01T11:23:34;102880.72;;;7.07;82.64
72685;BME280;61365;52.162;4.500;2022-12-01T11:26:17;102881.63;;;7.08;82.71
72685;BME280;61365;52.162;4.500;2022-12-01T11:31:41;102868.19;;;7.18;81.42
72685;BME280;61365;52.162;4.500;2022-12-01T11:34:18;102866.59;;;7.02;81.47
72685;BME280;61365;52.162;4.500;2022-12-01T11:36:50;102867.44;;;7.21;81.20
72685;BME280;61365;52.162;4.500;2022-12-01T11:39:35;102875.06;;;7.16;80.99
72685;BME280;61365;52.162;4.500;2022-12-01T11:42:15;102869.84;;;7.16;79.66
72685;BME280;61365;52.162;4.500;2022-12-01T11:44:53;102864.81;;;7.01;80.85
72685;BME280;61365;52.162;4.500;2022-12-01T11:47:26;102862.44;;;7.07;80.56
72685;BME280;61365;52.162;4.500;2022-12-01T11:49:59;102857.88;;;6.84;81.36
72685;BME280;61365;52.162;4.500;2022-12-01T11:52:31;102853.78;;;7.09;78.89
72685;BME280;61365;52.162;4.500;2022-12-01T11:55:06;102862.09;;;7.00;80.79
72685;BME280;61365;52.162;4.500;2022-12-01T11:57:48;102847.91;;;7.13;79.37
72685;BME280;61365;52.162;4.500;2022-12-01T12:00:18;102851.13;;;7.07;79.70
72685;BME280;61365;52.162;4.500;2022-12-01T12:03:15;102844.59;;;7.17;79.54
72685;BME280;61365;52.162;4.500;2022-12-01T12:11:46;102829.81;;;6.98;79.16
72685;BME280;61365;52.162;4.500;2022-12-01T12:25:44;102833.28;;;7.16;78.22
72685;BME280;61365;52.162;4.500;2022-12-01T12:46:10;102838.75;;;7.22;75.46
72685;BME280;61365;52.162;4.500;2022-12-01T12:49:04;102833.56;;;7.42;74.72
72685;BME280;61365;52.162;4.500;2022-12-01T12:52:19;102828.13;;;7.18;74.80
72685;BME280;61365;52.162;4.500;2022-12-01T12:54:56;102831.97;;;7.26;74.98
72685;BME280;61365;52.162;4.500;2022-12-01T12:57:32;102835.72;;;7.53;73.69
72685;BME280;61365;52.162;4.500;2022-12-01T13:00:12;102829.63;;;7.52;73.96
72685;BME280;61365;52.162;4.500;2022-12-01T13:05:57;102829.16;;;7.41;72.31
72685;BME280;61365;52.162;4.500;2022-12-01T13:11:29;102831.06;;;7.26;72.45
72685;BME280;61365;52.162;4.500;2022-12-01T13:14:05;102832.44;;;7.37;71.87
72685;BME280;61365;52.162;4.500;2022-12-01T13:16:42;102826.81;;;7.28;73.09
72685;BME280;61365;52.162;4.500;2022-12-01T13:19:15;102818.22;;;7.30;73.11
72685;BME280;61365;52.162;4.500;2022-12-01T13:21:47;102819.22;;;6.95;75.12
72685;BME280;61365;52.162;4.500;2022-12-01T13:24:21;102813.56;;;7.23;74.49
72685;BME280;61365;52.162;4.500;2022-12-01T13:26:56;102818.09;;;7.27;73.83
72685;BME280;61365;52.162;4.500;2022-12-01T13:29:32;102822.47;;;7.48;73.26
72685;BME280;61365;52.162;4.500;2022-12-01T13:32:04;102817.84;;;7.62;71.01
72685;BME280;61365;52.162;4.500;2022-12-01T13:34:38;102813.22;;;7.76;70.37
72685;BME280;61365;52.162;4.500;2022-12-01T13:37:09;102812.72;;;7.44;71.76
72685;BME280;61365;52.162;4.500;2022-12-01T13:39:40;102806.19;;;7.34;72.54
72685;BME280;61365;52.162;4.500;2022-12-01T13:42:07;102808.78;;;7.54;72.15
72685;BME280;61365;52.162;4.500;2022-12-01T13:47:31;102807.63;;;7.47;70.02
72685;BME280;61365;52.162;4.500;2022-12-01T13:53:25;102808.03;;;7.17;72.00
72685;BME280;61365;52.162;4.500;2022-12-01T13:58:48;102797.75;;;7.20;71.67
72685;BME280;61365;52.162;4.500;2022-12-01T14:03:57;102796.31;;;7.07;72.97
72685;BME280;61365;52.162;4.500;2022-12-01T14:12:13;102789.00;;;7.19;71.38
72685;BME280;61365;52.162;4.500;2022-12-01T14:14:55;102798.97;;;6.89;73.09
72685;BME280;61365;52.162;4.500;2022-12-01T14:17:35;102790.75;;;6.99;71.99
72685;BME280;61365;52.162;4.500;2022-12-01T14:20:19;102793.41;;;7.01;72.37
72685;BME280;61365;52.162;4.500;2022-12-01T14:23:10;102796.16;;;6.84;73.61
72685;BME280;61365;52.162;4.500;2022-12-01T14:25:41;102788.88;;;6.97;72.86
72685;BME280;61365;52.162;4.500;2022-12-01T14:34:00;102795.97;;;6.99;72.12
72685;BME280;61365;52.162;4.500;2022-12-01T14:36:41;102787.84;;;6.93;71.98
72685;BME280;61365;52.162;4.500;2022-12-01T14:39:18;102798.56;;;6.80;72.08
72685;BME280;61365;52.162;4.500;2022-12-01T14:41:57;102794.38;;;6.83;72.18
72685;BME280;61365;52.162;4.500;2022-12-01T14:44:40;102790.50;;;6.95;71.72
72685;BME280;61365;52.162;4.500;2022-12-01T14:47:18;102795.50;;;6.70;73.24
72685;BME280;61365;52.162;4.500;2022-12-01T14:49:54;102783.25;;;6.87;71.67
72685;BME280;61365;52.162;4.500;2022-12-01T14:52:35;102785.38;;;6.76;72.82
72685;BME280;61365;52.162;4.500;2022-12-01T14:55:11;102790.78;;;6.81;72.32
72685;BME280;61365;52.162;4.500;2022-12-01T14:57:47;102791.13;;;6.69;73.15
72685;BME280;61365;52.162;4.500;2022-12-01T15:00:20;102789.75;;;6.78;72.89
72685;BME280;61365;52.162;4.500;2022-12-01T15:02:52;102789.19;;;6.47;74.53
72685;BME280;61365;52.162;4.500;2022-12-01T15:05:29;102787.34;;;6.63;74.20
72685;BME280;61365;52.162;4.500;2022-12-01T15:08:15;102785.09;;;6.52;74.76
72685;BME280;61365;52.162;4.500;2022-12-01T15:10:55;102790.41;;;6.54;74.91
72685;BME280;61365;52.162;4.500;2022-12-01T15:13:26;102791.69;;;6.26;76.82
72685;BME280;61365;52.162;4.500;2022-12-01T15:15:56;102783.09;;;6.46;76.22
72685;BME280;61365;52.162;4.500;2022-12-01T15:18:35;102795.69;;;6.19;77.93